Monday, April 24, 2017, 4:56 PM EDT

KFYJ, West Point, Middle Peninsula Regional Airport

Location: Shacklefords, VA, United States Lat: 37.521
Local Time: 4:56 PM EDT (20:56 GMT) Lon: -76.764
Time Zone: US/Eastern Elev: 22 ft

Show me the last for .
Show Decoded

2017-04-24 16:35 METAR KFYJ 242035Z AUTO 04011G17KT 7SM BKN009 OVC013 14/13 A2991 RMK AO2
                 T01350128 =
2017-04-24 16:15 METAR KFYJ 242015Z AUTO 06013G18KT 7SM OVC011 14/13 A2992 RMK AO2 T01380131 =
2017-04-24 15:55 METAR KFYJ 241955Z AUTO 05012G18KT 5SM BKN011 OVC017 14/13 A2992 RMK AO2
                 T01400132 =
2017-04-24 15:35 METAR KFYJ 241935Z AUTO 05013G19KT 7SM BKN007 OVC014 14/14 A2993 RMK AO2
                 T01410135 =
2017-04-24 15:15 METAR KFYJ 241915Z AUTO 06015G20KT 4SM OVC007 14/14 A2994 RMK AO2 T01410135 =
2017-04-24 14:55 METAR KFYJ 241855Z AUTO 05013G18KT 2SM OVC007 14/14 A2995 RMK AO2 T01420136 =
2017-04-24 14:35 METAR KFYJ 241835Z AUTO 06014G20KT 2 1/2SM OVC007 14/14 A2995 RMK AO2 T01410135
                 =
2017-04-24 14:15 METAR KFYJ 241815Z AUTO 05013G17KT 3SM OVC007 14/14 A2996 RMK AO2 T01410135 =
2017-04-24 13:55 METAR KFYJ 241755Z AUTO 06012G17KT 7SM OVC009 14/14 A2997 RMK AO2 P0001 60026
                 T01400135 10141 20115 =
2017-04-24 13:35 METAR KFYJ 241735Z AUTO 05008G14KT 360V070 7SM OVC009 14/14 A2997 RMK AO2 P0001
                 T01410135 =
2017-04-24 13:15 METAR KFYJ 241715Z AUTO 04008G15KT 7SM OVC009 14/13 A2998 RMK AO2 T01400134 =
2017-04-24 12:55 METAR KFYJ 241655Z AUTO 05009KT 7SM OVC007 14/13 A2999 RMK AO2 P0001 T01370131 =
2017-04-24 12:35 METAR KFYJ 241635Z AUTO 04006KT 5SM OVC007 13/13 A2999 RMK AO2 P0001 T01340127 =
2017-04-24 12:15 METAR KFYJ 241615Z AUTO 03005KT 4SM OVC007 13/13 A3000 RMK AO2 P0001 T01310125 =
2017-04-24 11:55 METAR KFYJ 241555Z AUTO 04007KT 10SM OVC007 13/12 A3000 RMK AO2 P0001 T01300124
                 =
2017-04-24 11:35 METAR KFYJ 241535Z AUTO 04009KT 7SM OVC007 13/12 A3000 RMK AO2 P0001 T01300123 =
2017-04-24 11:15 METAR KFYJ 241515Z AUTO 03008KT 360V070 10SM OVC007 13/12 A3000 RMK AO2 P0001
                 T01270122 =
2017-04-24 10:55 METAR KFYJ 241455Z AUTO 03004KT 10SM OVC007 13/12 A3001 RMK AO2 60023 T01250120
                 =
2017-04-24 10:35 METAR KFYJ 241435Z AUTO 02004KT 7SM OVC007 12/12 A3001 RMK AO2 T01220117 =
2017-04-24 10:15 METAR KFYJ 241415Z AUTO 03004KT 7SM OVC007 12/12 A3001 RMK AO2 T01210116 =
2017-04-24 09:55 METAR KFYJ 241355Z AUTO 01004KT 5SM OVC007 12/11 A3001 RMK AO2 P0014 T01190114 =
2017-04-24 09:35 METAR KFYJ 241335Z AUTO 01004KT 3SM OVC007 12/11 A3002 RMK AO2 P0013 T01180113 =
2017-04-24 09:15 METAR KFYJ 241315Z AUTO 03004KT 1 3/4SM OVC009 12/11 A3002 RMK AO2 P0007
                 T01170112 =
2017-04-24 08:55 METAR KFYJ 241255Z AUTO 04006KT 7SM BKN007 OVC011 12/11 A3001 RMK AO2 P0009
                 T01160111 =
2017-04-24 08:35 METAR KFYJ 241235Z AUTO 04006KT 4SM BKN007 OVC018 12/11 A3001 RMK AO2 P0009
                 T01160111 =
2017-04-24 08:15 METAR KFYJ 241215Z AUTO 03007G14KT 1 1/4SM OVC007 12/11 A3001 RMK AO2 P0006
                 T01160111 =
2017-04-24 07:55 METAR KFYJ 241155Z AUTO 04010KT 7SM OVC007 12/11 A3001 RMK AO2 60010 70014
                 T01150110 10118 20110 =
2017-04-24 07:35 METAR KFYJ 241135Z AUTO 04007KT 010V070 7SM OVC007 12/11 A3001 RMK AO2 T01150110
                 =
2017-04-24 07:15 METAR KFYJ 241115Z AUTO 04006KT 4SM OVC007 11/11 A3001 RMK AO2 T01130108 =
2017-04-24 06:55 METAR KFYJ 241055Z AUTO 04008KT 10SM OVC007 11/11 A3001 RMK AO2 P0003 T01120107
                 =
2017-04-24 06:35 METAR KFYJ 241035Z AUTO 04008KT 10SM BKN007 OVC012 11/11 A3000 RMK AO2 P0003
                 T01110106 =
2017-04-24 06:15 METAR KFYJ 241015Z AUTO 01007KT 7SM OVC007 11/11 A3000 RMK AO2 T01100105 =
2017-04-24 05:55 METAR KFYJ 240955Z AUTO 03005KT 10SM OVC007 11/11 A3001 RMK AO2 T01100105 =
2017-04-24 05:35 METAR KFYJ 240935Z AUTO 03006KT 10SM OVC007 11/11 A3000 RMK AO2 T01100105 =
2017-04-24 05:15 METAR KFYJ 240915Z AUTO 02005KT 7SM OVC007 11/11 A3000 RMK AO2 T01100105 =
2017-04-24 04:55 METAR KFYJ 240855Z AUTO 03007KT 360V060 10SM OVC007 11/11 A3000 RMK AO2 P0002
                 60007 T01100105 =
2017-04-24 04:35 METAR KFYJ 240835Z AUTO 02003KT 4SM OVC005 11/11 A3001 RMK AO2 P0002 T01140109 =
2017-04-24 04:15 METAR KFYJ 240815Z AUTO 02003KT 5SM BKN007 OVC012 12/11 A3001 RMK AO2 P0001
                 T01150108 =
2017-04-24 03:55 METAR KFYJ 240755Z AUTO 03004KT 3SM SCT007 OVC011 12/11 A3001 RMK AO2 P0003
                 T01150108 =
2017-04-24 03:35 METAR KFYJ 240735Z AUTO 03004KT 5SM SCT006 OVC011 12/11 A3001 RMK AO2 P0001
                 T01150109 =
2017-04-24 03:15 METAR KFYJ 240715Z AUTO 00000KT 5SM OVC009 12/11 A3002 RMK AO2 T01160110 =
2017-04-24 02:55 METAR KFYJ 240655Z AUTO 00000KT 3SM OVC013 12/11 A3002 RMK AO2 P0002 T01160108 =
2017-04-24 02:35 METAR KFYJ 240635Z AUTO 00000KT 10SM BKN015 BKN022 OVC026 12/11 A3003 RMK AO2
                 T01170110 =
2017-04-24 02:15 METAR KFYJ 240615Z AUTO 00000KT 10SM SCT017 OVC027 12/11 A3003 RMK AO2 T01180110
                 =
2017-04-24 01:55 METAR KFYJ 240555Z AUTO 00000KT 10SM OVC032 12/11 A3003 RMK AO2 60001 T01160107
                 10118 20113 401470106 =
2017-04-24 01:35 METAR KFYJ 240535Z AUTO 00000KT 4SM SCT032 OVC038 12/11 A3005 RMK AO2 T01170106
                 =
2017-04-24 01:15 METAR KFYJ 240515Z AUTO 00000KT 10SM OVC040 12/11 A3006 RMK AO2 T01170105 =
2017-04-24 00:55 METAR KFYJ 240455Z AUTO 02003KT 10SM OVC044 12/11 A3006 RMK AO2 T01170105 =
2017-04-24 00:35 METAR KFYJ 240435Z AUTO 05005KT 10SM OVC048 12/10 A3006 RMK AO2 T01160103 =
2017-04-24 00:15 METAR KFYJ 240415Z AUTO 04006KT 10SM OVC055 12/10 A3006 RMK AO2 T01150103 =
2017-04-23 23:55 METAR KFYJ 240355Z AUTO 05004KT 10SM OVC065 12/10 A3008 RMK AO2 T01150102 =
2017-04-23 23:35 METAR KFYJ 240335Z AUTO 08005KT 10SM OVC065 11/10 A3009 RMK AO2 T01130101 =
2017-04-23 23:15 METAR KFYJ 240315Z AUTO 07006KT 10SM OVC075 11/10 A3008 RMK AO2 T01130102 =
2017-04-23 22:55 METAR KFYJ 240255Z AUTO 06005KT 10SM BKN075 OVC090 11/10 A3009 RMK AO2 P0001
                 60001 T01130102 =
2017-04-23 22:35 METAR KFYJ 240235Z AUTO 06004KT 10SM BKN075 OVC085 12/11 A3010 RMK AO2 T01150105
                 =
2017-04-23 22:15 METAR KFYJ 240215Z AUTO 00000KT 10SM OVC085 12/11 A3011 RMK AO2 T01150105 =
2017-04-23 21:55 METAR KFYJ 240155Z AUTO 00000KT 10SM OVC085 12/11 A3011 RMK AO2 T01150105 =
2017-04-23 21:35 METAR KFYJ 240135Z AUTO 00000KT 10SM OVC085 12/11 A3010 RMK AO2 T01160105 =
2017-04-23 21:15 METAR KFYJ 240115Z AUTO 00000KT 10SM OVC095 12/11 A3010 RMK AO2 T01160105 =
2017-04-23 20:55 METAR KFYJ 240055Z AUTO 05003KT 10SM OVC095 12/10 A3010 RMK AO2 T01160104 =
2017-04-23 20:35 METAR KFYJ 240035Z AUTO 00000KT 10SM OVC095 12/10 A3009 RMK AO2 T01160103 =
2017-04-23 20:15 METAR KFYJ 240015Z AUTO 06005KT 10SM OVC095 12/11 A3008 RMK AO2 T01170106 =
2017-04-23 19:55 METAR KFYJ 232355Z AUTO 04003KT 10SM OVC095 12/11 A3008 RMK AO2 P0001 60002
                 T01180107 10147 20118 =
2017-04-23 19:35 METAR KFYJ 232335Z AUTO 08004KT 10SM OVC095 12/11 A3008 RMK AO2 P0001 T01210108
                 =
2017-04-23 19:15 METAR KFYJ 232315Z AUTO 00000KT 10SM OVC095 12/11 A3009 RMK AO2 T01220110 =
2017-04-23 18:55 METAR KFYJ 232255Z AUTO 00000KT 10SM BKN095 13/11 A3008 RMK AO2 P0001 T01250110
                 =
2017-04-23 18:35 METAR KFYJ 232235Z AUTO 08003KT 10SM SCT095 13/11 A3008 RMK AO2 P0001 T01260110
                 =
2017-04-23 18:10 METAR KFYJ 232210Z AUTO 04003KT 10SM SCT100 13/11 A3008 RMK AO2 T01280108 =
2017-04-23 17:55 METAR KFYJ 232155Z AUTO 00000KT 10SM SCT100 13/11 A3009 RMK AO2 T01280105 =
2017-04-23 17:35 METAR KFYJ 232135Z AUTO 00000KT 10SM SCT055 SCT100 13/10 A3008 RMK AO2 T01310102
                 =
2017-04-23 17:15 METAR KFYJ 232115Z AUTO 03003KT 10SM SCT026 SCT036 BKN120 13/10 A3009 RMK AO2
                 T01320096 =

Support USWX by starting your Amazon purchase here.